createdAt,value
2017-05-28T00:02:09.503Z,53.60
2017-05-28T00:04:38.386Z,53.40
2017-05-28T00:07:07.276Z,53.80
2017-05-28T00:09:36.172Z,54.00
2017-05-28T00:12:04.992Z,54.30
2017-05-28T00:14:33.858Z,54.40
2017-05-28T00:17:02.734Z,54.40
2017-05-28T00:19:31.670Z,54.90
2017-05-28T00:22:00.555Z,54.80
2017-05-28T00:24:29.459Z,55.90
2017-05-28T00:26:58.295Z,55.60
2017-05-28T00:29:27.169Z,55.60
2017-05-28T00:31:56.050Z,55.70
2017-05-28T00:34:24.935Z,55.80
2017-05-28T00:36:53.794Z,55.60
2017-05-28T00:39:22.632Z,55.80
2017-05-28T00:41:51.483Z,55.20
2017-05-28T00:44:20.336Z,55.30
2017-05-28T00:46:48.446Z,55.30
2017-05-28T00:49:17.286Z,55.60
2017-05-28T00:51:46.166Z,55.30
2017-05-28T00:54:15.026Z,55.10
2017-05-28T00:56:43.852Z,55.10
2017-05-28T00:59:12.719Z,55.00
2017-05-28T01:01:41.568Z,55.20
2017-05-28T01:04:10.461Z,55.40
2017-05-28T01:06:39.310Z,55.70
2017-05-28T01:09:08.175Z,56.30
2017-05-28T01:11:37.075Z,56.90
2017-05-28T01:14:05.906Z,56.80
2017-05-28T01:16:34.787Z,57.20
2017-05-28T01:19:03.622Z,57.20
2017-05-28T01:21:32.453Z,57.20
2017-05-28T01:24:00.524Z,57.20
2017-05-28T01:26:29.388Z,57.70
2017-05-28T01:28:58.225Z,58.00
2017-05-28T01:31:27.061Z,58.10
2017-05-28T01:33:55.180Z,58.10
2017-05-28T01:36:24.016Z,58.60
2017-05-28T01:38:52.851Z,58.80
2017-05-28T01:41:21.692Z,58.70
2017-05-28T01:43:50.548Z,58.60
2017-05-28T01:46:19.393Z,59.10
2017-05-28T01:48:48.247Z,59.10
2017-05-28T01:51:17.111Z,59.00
2017-05-28T01:53:45.951Z,59.00
2017-05-28T01:56:14.783Z,59.50
2017-05-28T01:58:43.658Z,59.60
2017-05-28T02:01:12.495Z,62.20
2017-05-28T02:03:41.437Z,62.20
2017-05-28T02:06:10.286Z,61.50
2017-05-28T02:08:39.128Z,61.30
2017-05-28T02:11:07.987Z,62.60
2017-05-28T02:13:36.843Z,62.70
2017-05-28T02:16:05.688Z,62.50
2017-05-28T02:18:34.539Z,61.70
2017-05-28T02:21:03.419Z,61.20
2017-05-28T02:23:32.355Z,61.40
2017-05-28T02:26:01.220Z,61.10
2017-05-28T02:28:30.091Z,61.00
2017-05-28T02:30:58.956Z,61.50
2017-05-28T02:33:27.823Z,61.70
2017-05-28T02:35:56.703Z,62.40
2017-05-28T02:38:25.544Z,62.60
2017-05-28T02:40:54.409Z,62.50
2017-05-28T02:43:23.274Z,62.60
2017-05-28T02:45:52.128Z,62.60
2017-05-28T02:48:20.964Z,62.60
2017-05-28T02:50:49.807Z,62.90
2017-05-28T02:53:18.666Z,63.20
2017-05-28T02:55:47.525Z,62.90
2017-05-28T02:58:16.368Z,63.00
2017-05-28T03:00:45.238Z,62.70
2017-05-28T03:03:14.157Z,63.10
2017-05-28T03:05:43.000Z,62.40
2017-05-28T03:08:11.848Z,62.20
2017-05-28T03:10:40.675Z,62.10
2017-05-28T03:13:09.531Z,61.90
2017-05-28T03:15:38.387Z,60.90
2017-05-28T03:18:07.246Z,61.30
2017-05-28T03:20:36.087Z,61.10
2017-05-28T03:23:05.376Z,61.40
2017-05-28T03:25:34.187Z,62.00
2017-05-28T03:28:03.028Z,62.50
2017-05-28T03:30:31.873Z,62.70
2017-05-28T03:33:00.703Z,62.50
2017-05-28T03:35:29.567Z,62.80
2017-05-28T03:37:58.412Z,62.70
2017-05-28T03:40:27.240Z,63.10
2017-05-28T03:42:56.087Z,63.70
2017-05-28T03:45:24.912Z,64.90
2017-05-28T03:47:53.754Z,65.10
2017-05-28T03:50:22.592Z,64.40
2017-05-28T03:52:51.428Z,64.30
2017-05-28T03:55:20.270Z,63.90
2017-05-28T03:57:49.111Z,63.90
2017-05-28T04:00:17.971Z,63.70
2017-05-28T04:02:46.813Z,63.40
2017-05-28T04:05:15.684Z,63.20
2017-05-28T04:07:44.542Z,63.10
2017-05-28T04:10:13.379Z,62.90
2017-05-28T04:12:42.220Z,62.70
2017-05-28T04:15:11.034Z,62.40
2017-05-28T04:17:40.052Z,62.10
2017-05-28T04:20:08.959Z,62.90
2017-05-28T04:22:37.824Z,61.70
2017-05-28T04:25:06.655Z,61.30
2017-05-28T04:27:35.502Z,59.70
2017-05-28T04:30:04.358Z,59.60
2017-05-28T04:32:33.176Z,59.10
2017-05-28T04:35:02.007Z,59.00
2017-05-28T04:37:30.855Z,58.90
2017-05-28T04:39:59.749Z,58.80
2017-05-28T04:42:28.579Z,58.30
2017-05-28T04:44:57.436Z,58.00
2017-05-28T04:47:26.281Z,57.80
2017-05-28T04:49:55.107Z,57.40
2017-05-28T04:52:23.962Z,57.20
2017-05-28T04:54:52.787Z,57.10
2017-05-28T04:57:21.639Z,56.80
2017-05-28T04:59:50.564Z,56.40
2017-05-28T05:02:19.620Z,56.40
2017-05-28T05:04:48.512Z,56.60
2017-05-28T05:07:17.331Z,56.30
2017-05-28T05:09:46.186Z,56.50
2017-05-28T05:12:15.012Z,56.50
2017-05-28T05:14:43.900Z,55.40
2017-05-28T05:17:12.724Z,55.00
2017-05-28T05:19:41.675Z,54.20
2017-05-28T05:22:10.520Z,53.90
2017-05-28T05:24:39.393Z,53.70
2017-05-28T05:27:08.229Z,54.00
2017-05-28T05:29:37.063Z,54.10
2017-05-28T05:32:05.904Z,54.00
2017-05-28T05:34:34.771Z,53.70
2017-05-28T05:37:03.607Z,53.10
2017-05-28T05:39:32.447Z,52.40
2017-05-28T05:42:01.293Z,52.60
2017-05-28T05:44:30.131Z,52.10
2017-05-28T05:46:58.972Z,52.00
2017-05-28T05:49:27.816Z,52.10
2017-05-28T05:51:56.705Z,51.50
2017-05-28T05:54:25.536Z,51.40
2017-05-28T05:56:54.383Z,50.60
2017-05-28T05:59:23.209Z,50.10
2017-05-28T06:01:52.075Z,50.20
2017-05-28T06:04:20.912Z,50.40
2017-05-28T06:06:49.749Z,50.00
2017-05-28T06:09:18.605Z,50.00
2017-05-28T06:11:47.441Z,49.60
2017-05-28T06:14:16.300Z,50.40
2017-05-28T06:16:45.141Z,49.00
2017-05-28T06:19:14.008Z,49.40
2017-05-28T06:21:42.834Z,49.00
2017-05-28T06:24:11.685Z,48.30
2017-05-28T06:26:40.549Z,48.70
2017-05-28T06:29:09.384Z,48.00
2017-05-28T06:31:38.225Z,48.20
2017-05-28T06:34:07.045Z,48.20
2017-05-28T06:36:35.902Z,47.50
2017-05-28T06:39:04.741Z,47.90
2017-05-28T06:41:33.567Z,47.40
2017-05-28T06:44:02.398Z,46.70
2017-05-28T06:46:31.237Z,45.50
2017-05-28T06:49:00.079Z,44.90
2017-05-28T06:51:28.944Z,45.20
2017-05-28T06:53:57.785Z,45.20
2017-05-28T06:56:26.638Z,44.40
2017-05-28T06:58:55.501Z,44.20
2017-05-28T07:01:24.351Z,45.00
2017-05-28T07:03:53.213Z,44.60
2017-05-28T07:06:22.063Z,43.30
2017-05-28T07:08:50.909Z,44.10
2017-05-28T07:11:19.755Z,43.70
2017-05-28T07:13:48.607Z,43.70
2017-05-28T07:16:17.451Z,43.80
2017-05-28T07:18:46.306Z,43.80
2017-05-28T07:21:15.142Z,43.90
2017-05-28T07:23:44.023Z,43.50
2017-05-28T07:26:12.878Z,43.00
2017-05-28T07:28:41.708Z,42.70
2017-05-28T07:31:10.551Z,41.70
2017-05-28T07:33:39.411Z,42.60
2017-05-28T07:36:08.244Z,42.20
2017-05-28T07:38:37.083Z,40.50
2017-05-28T07:41:05.920Z,41.20
2017-05-28T07:43:34.779Z,39.90
2017-05-28T07:46:03.612Z,39.40
2017-05-28T07:48:32.455Z,40.30
2017-05-28T07:51:01.293Z,40.50
2017-05-28T07:53:30.145Z,38.50
2017-05-28T07:55:58.981Z,38.50
2017-05-28T07:58:27.811Z,38.50
2017-05-28T08:00:56.647Z,36.90
2017-05-28T08:03:25.497Z,37.40
2017-05-28T08:05:54.348Z,36.00
2017-05-28T08:08:23.177Z,35.80
2017-05-28T08:10:52.054Z,36.40
2017-05-28T08:13:20.901Z,35.40
2017-05-28T08:15:49.870Z,35.10
2017-05-28T08:18:18.704Z,36.60
2017-05-28T08:20:47.546Z,37.00
2017-05-28T08:23:16.383Z,35.80
2017-05-28T08:25:45.294Z,35.10
2017-05-28T08:28:14.228Z,34.10
2017-05-28T08:30:43.093Z,33.00
2017-05-28T08:33:11.919Z,33.10
2017-05-28T08:35:40.759Z,34.20
2017-05-28T08:38:09.604Z,33.30
2017-05-28T08:40:38.436Z,33.90
2017-05-28T08:43:07.268Z,33.30
2017-05-28T08:45:36.136Z,33.40
2017-05-28T08:48:04.957Z,34.20
2017-05-28T08:50:33.798Z,32.50
2017-05-28T08:53:02.635Z,31.90
2017-05-28T08:55:31.469Z,31.00
2017-05-28T08:58:00.299Z,30.60
2017-05-28T09:00:29.141Z,30.60
2017-05-28T09:02:57.995Z,30.30
2017-05-28T09:05:26.827Z,29.60
2017-05-28T09:07:55.659Z,30.10
2017-05-28T09:10:24.513Z,29.10
2017-05-28T09:12:53.349Z,29.00
2017-05-28T09:15:22.205Z,28.80
2017-05-28T09:17:51.031Z,28.80
2017-05-28T09:20:19.889Z,28.30
2017-05-28T09:22:48.727Z,29.30
2017-05-28T09:25:17.563Z,29.80
2017-05-28T09:27:46.399Z,28.80
2017-05-28T09:30:15.246Z,28.80
2017-05-28T09:32:44.296Z,28.60
2017-05-28T09:35:13.135Z,28.80
2017-05-28T09:37:41.986Z,28.70
2017-05-28T09:40:10.830Z,29.30
2017-05-28T09:42:39.652Z,28.80
2017-05-28T09:45:08.507Z,28.80
2017-05-28T09:47:37.351Z,29.00
2017-05-28T09:50:06.188Z,29.10
2017-05-28T09:52:35.024Z,29.20
2017-05-28T09:55:03.951Z,29.00
2017-05-28T09:57:32.837Z,28.60
2017-05-28T10:00:01.706Z,27.50
2017-05-28T10:02:30.532Z,27.40
2017-05-28T10:04:59.394Z,27.30
2017-05-28T10:07:28.240Z,27.00
2017-05-28T10:09:57.095Z,26.80
2017-05-28T10:12:25.960Z,27.40
2017-05-28T10:14:54.803Z,26.80
2017-05-28T10:17:23.635Z,26.30
2017-05-28T10:19:52.487Z,28.30
2017-05-28T10:22:21.323Z,27.40
2017-05-28T10:24:49.553Z,27.30
2017-05-28T10:27:18.362Z,26.80
2017-05-28T10:29:47.220Z,27.00
2017-05-28T10:32:16.055Z,26.70
2017-05-28T10:34:44.894Z,26.10
2017-05-28T10:37:13.945Z,27.00
2017-05-28T10:39:42.024Z,27.00
2017-05-28T10:42:10.887Z,26.50
2017-05-28T10:44:39.064Z,26.40
2017-05-28T10:47:08.059Z,25.60
2017-05-28T10:49:36.939Z,25.80
2017-05-28T10:52:05.779Z,25.60
2017-05-28T10:54:34.629Z,24.70
2017-05-28T10:57:03.461Z,24.70
2017-05-28T10:59:32.301Z,25.20
2017-05-28T11:02:01.133Z,25.00
2017-05-28T11:04:29.992Z,24.40
2017-05-28T11:06:58.875Z,24.50
2017-05-28T11:09:28.698Z,24.60
2017-05-28T11:11:57.535Z,25.30
2017-05-28T11:14:26.643Z,25.20
2017-05-28T11:16:55.893Z,24.00
2017-05-28T11:19:24.728Z,23.50
2017-05-28T11:21:53.596Z,23.60
2017-05-28T11:24:22.419Z,24.00
2017-05-28T11:26:50.487Z,24.00
2017-05-28T11:29:19.331Z,23.80
2017-05-28T11:31:48.171Z,23.90
2017-05-28T11:34:17.012Z,24.30
2017-05-28T11:36:45.840Z,23.00
2017-05-28T11:39:14.711Z,24.20
2017-05-28T11:41:43.548Z,23.90
2017-05-28T11:44:12.385Z,23.40
2017-05-28T11:46:41.244Z,23.00
2017-05-28T11:49:10.079Z,23.00
2017-05-28T11:51:38.924Z,23.60
2017-05-28T11:54:07.755Z,23.60
2017-05-28T11:56:36.626Z,23.80
2017-05-28T11:59:05.528Z,23.90
2017-05-28T12:01:34.320Z,23.60
2017-05-28T12:04:03.174Z,23.40
2017-05-28T12:06:32.049Z,23.10
2017-05-28T12:09:00.889Z,22.70
2017-05-28T12:11:29.725Z,21.80
2017-05-28T12:13:58.560Z,21.80
2017-05-28T12:16:27.391Z,22.90
2017-05-28T12:18:56.243Z,22.50
2017-05-28T12:21:25.079Z,23.40
2017-05-28T12:23:53.913Z,22.40
2017-05-28T12:26:22.748Z,22.50
2017-05-28T12:28:51.589Z,21.80
2017-05-28T12:31:20.422Z,21.00
2017-05-28T12:33:49.280Z,21.10
2017-05-28T12:36:18.107Z,21.20
2017-05-28T12:38:46.940Z,21.90
2017-05-28T12:41:15.786Z,22.30
2017-05-28T12:43:44.615Z,21.80
2017-05-28T12:46:13.469Z,22.10
2017-05-28T12:48:42.295Z,22.60
2017-05-28T12:51:11.127Z,22.40
2017-05-28T12:53:39.982Z,22.00
2017-05-28T12:56:08.804Z,21.90
2017-05-28T12:58:37.659Z,20.70
2017-05-28T13:01:06.488Z,20.50
2017-05-28T13:03:35.333Z,20.40
2017-05-28T13:06:03.400Z,20.40
2017-05-28T13:08:32.227Z,20.60
2017-05-28T13:11:01.086Z,21.30
2017-05-28T13:13:29.903Z,21.60
2017-05-28T13:15:58.738Z,22.40
2017-05-28T13:18:27.567Z,21.20
2017-05-28T13:20:56.395Z,21.40
2017-05-28T13:23:25.244Z,21.50
2017-05-28T13:25:54.075Z,21.30
2017-05-28T13:28:22.908Z,20.90
2017-05-28T13:30:51.745Z,22.50
2017-05-28T13:33:19.803Z,22.50
2017-05-28T13:35:48.660Z,21.00
2017-05-28T13:38:17.493Z,21.40
2017-05-28T13:40:46.315Z,20.60
2017-05-28T13:43:15.163Z,20.60
2017-05-28T13:45:44.000Z,21.40
2017-05-28T13:48:12.847Z,21.50
2017-05-28T13:50:41.676Z,21.10
2017-05-28T13:53:10.512Z,21.10
2017-05-28T13:55:38.577Z,21.10
2017-05-28T13:58:07.401Z,22.20
2017-05-28T14:00:36.249Z,21.50
2017-05-28T14:03:05.083Z,21.80
2017-05-28T14:05:33.908Z,22.10
2017-05-28T14:08:02.751Z,22.10
2017-05-28T14:10:31.587Z,21.60
2017-05-28T14:13:00.469Z,21.70
2017-05-28T14:15:29.288Z,22.00
2017-05-28T14:17:58.113Z,21.90
2017-05-28T14:20:26.978Z,22.70
2017-05-28T14:22:55.775Z,22.40
2017-05-28T14:25:23.870Z,22.40
2017-05-28T14:27:52.702Z,22.50
2017-05-28T14:30:22.537Z,23.00
2017-05-28T14:32:51.374Z,22.90
2017-05-28T14:35:20.199Z,22.60
2017-05-28T14:37:49.039Z,22.10
2017-05-28T14:40:17.870Z,22.40
2017-05-28T14:42:46.696Z,22.80
2017-05-28T14:45:15.532Z,22.30
2017-05-28T14:47:44.362Z,22.30
2017-05-28T14:50:13.228Z,22.70
2017-05-28T14:52:42.064Z,21.90
2017-05-28T14:55:10.901Z,22.70
2017-05-28T14:57:39.766Z,22.40
2017-05-28T15:00:08.765Z,23.20
2017-05-28T15:02:37.612Z,23.10
2017-05-28T15:05:06.441Z,22.80
2017-05-28T15:07:35.278Z,23.20
2017-05-28T15:10:04.108Z,23.20
2017-05-28T15:12:32.952Z,23.10
2017-05-28T15:15:01.795Z,22.80
2017-05-28T15:17:30.627Z,22.80
2017-05-28T15:19:59.475Z,22.90
2017-05-28T15:22:28.327Z,23.20
2017-05-28T15:24:57.156Z,22.60
2017-05-28T15:27:26.903Z,23.10
2017-05-28T15:29:55.739Z,22.50
2017-05-28T15:32:24.569Z,22.80
2017-05-28T15:34:53.406Z,23.30
2017-05-28T15:37:22.235Z,22.80
2017-05-28T15:39:51.083Z,23.00
2017-05-28T15:42:19.918Z,22.90
2017-05-28T15:44:48.747Z,23.30
2017-05-28T15:47:17.576Z,24.10
2017-05-28T15:49:46.412Z,23.00
2017-05-28T15:52:15.271Z,23.30
2017-05-28T15:54:44.101Z,23.30
2017-05-28T15:57:12.927Z,23.10
2017-05-28T15:59:41.767Z,23.80
2017-05-28T16:02:10.595Z,23.30
2017-05-28T16:04:39.459Z,22.30
2017-05-28T16:07:08.279Z,22.40
2017-05-28T16:09:37.104Z,22.30
2017-05-28T16:12:05.935Z,22.20
2017-05-28T16:14:34.771Z,22.30
2017-05-28T16:17:03.617Z,23.10
2017-05-28T16:19:32.442Z,23.10
2017-05-28T16:22:01.280Z,22.40
2017-05-28T16:24:30.111Z,22.50
2017-05-28T16:26:58.944Z,22.70
2017-05-28T16:29:27.956Z,22.90
2017-05-28T16:31:56.784Z,23.00
2017-05-28T16:34:24.857Z,22.90
2017-05-28T16:36:53.699Z,22.10
2017-05-28T16:39:22.532Z,22.20
2017-05-28T16:41:51.373Z,21.80
2017-05-28T16:44:20.199Z,22.10
2017-05-28T16:46:48.266Z,22.10
2017-05-28T16:49:17.107Z,22.80
2017-05-28T16:51:45.931Z,22.70
2017-05-28T16:54:14.793Z,22.90
2017-05-28T16:56:43.623Z,21.40
2017-05-28T16:59:12.451Z,21.60
2017-05-28T17:01:41.295Z,22.50
2017-05-28T17:04:10.130Z,21.50
2017-05-28T17:06:38.198Z,21.50
2017-05-28T17:09:07.021Z,22.10
2017-05-28T17:11:35.895Z,22.30
2017-05-28T17:14:04.727Z,22.40
2017-05-28T17:16:33.559Z,22.10
2017-05-28T17:19:02.400Z,22.60
2017-05-28T17:21:31.225Z,22.40
2017-05-28T17:24:00.076Z,22.80
2017-05-28T17:26:28.902Z,22.60
2017-05-28T17:28:57.756Z,22.60
2017-05-28T17:31:26.578Z,23.10
2017-05-28T17:33:55.409Z,22.60
2017-05-28T17:36:24.245Z,22.60
2017-05-28T17:38:53.079Z,23.20
2017-05-28T17:41:21.929Z,22.80
2017-05-28T17:43:50.761Z,22.60
2017-05-28T17:46:19.592Z,23.20
2017-05-28T17:48:48.422Z,23.30
2017-05-28T17:51:17.253Z,23.30
2017-05-28T17:53:46.078Z,23.90
2017-05-28T17:56:14.915Z,24.20
2017-05-28T17:58:43.760Z,24.50
2017-05-28T18:01:12.582Z,24.50
2017-05-28T18:03:41.417Z,24.90
2017-05-28T18:06:10.261Z,25.40
2017-05-28T18:08:39.119Z,25.90
2017-05-28T18:11:07.952Z,25.80
2017-05-28T18:13:36.776Z,28.00
2017-05-28T18:16:05.625Z,29.20
2017-05-28T18:18:34.452Z,32.60
2017-05-28T18:21:02.568Z,32.60
2017-05-28T18:23:31.403Z,31.80
2017-05-28T18:26:00.256Z,30.80
2017-05-28T18:28:29.095Z,29.30
2017-05-28T18:30:57.931Z,31.40
2017-05-28T18:33:26.811Z,31.20
2017-05-28T18:35:55.646Z,31.10
2017-05-28T18:38:24.501Z,32.20
2017-05-28T18:40:53.337Z,30.10
2017-05-28T18:43:22.196Z,30.80
2017-05-28T18:45:51.053Z,30.70
2017-05-28T18:48:19.892Z,30.20
2017-05-28T18:50:48.739Z,31.40
2017-05-28T18:53:17.640Z,32.00
2017-05-28T18:55:46.478Z,32.20
2017-05-28T18:58:15.993Z,30.40
2017-05-28T19:00:44.852Z,31.50
2017-05-28T19:03:13.693Z,30.70
2017-05-28T19:05:42.533Z,32.60
2017-05-28T19:08:11.385Z,31.90
2017-05-28T19:10:40.213Z,32.80
2017-05-28T19:13:09.063Z,33.70
2017-05-28T19:15:37.896Z,34.70
2017-05-28T19:18:06.740Z,33.40
2017-05-28T19:20:35.568Z,33.00
2017-05-28T19:23:04.415Z,33.20
2017-05-28T19:25:33.271Z,34.30
2017-05-28T19:28:02.105Z,33.80
2017-05-28T19:30:30.977Z,33.80
2017-05-28T19:32:59.811Z,34.50
2017-05-28T19:35:28.647Z,34.10
2017-05-28T19:37:57.488Z,34.50
2017-05-28T19:40:26.333Z,36.00
2017-05-28T19:42:55.170Z,37.90
2017-05-28T19:45:24.005Z,37.90
2017-05-28T19:47:52.858Z,38.40
2017-05-28T19:50:21.684Z,40.60
2017-05-28T19:52:50.519Z,40.60
2017-05-28T19:55:19.378Z,37.10
2017-05-28T19:57:48.271Z,36.00
2017-05-28T20:00:16.365Z,35.90
2017-05-28T20:02:45.190Z,35.50
2017-05-28T20:05:14.060Z,35.60
2017-05-28T20:07:42.882Z,35.50
2017-05-28T20:10:11.719Z,35.50
2017-05-28T20:12:40.583Z,36.20
2017-05-28T20:15:09.428Z,36.30
2017-05-28T20:17:38.281Z,36.20
2017-05-28T20:20:07.107Z,40.90
2017-05-28T20:22:35.966Z,40.30
2017-05-28T20:25:04.903Z,41.30
2017-05-28T20:27:34.124Z,42.20
2017-05-28T20:30:02.967Z,43.50
2017-05-28T20:32:31.798Z,43.80
2017-05-28T20:35:00.636Z,44.70
2017-05-28T20:37:29.483Z,44.60
2017-05-28T20:39:58.319Z,44.00
2017-05-28T20:42:27.164Z,44.60
2017-05-28T20:44:56.001Z,44.90
2017-05-28T20:47:24.843Z,44.90
2017-05-28T20:49:53.676Z,45.20
2017-05-28T20:52:21.745Z,45.20
2017-05-28T20:54:50.582Z,45.70
2017-05-28T20:57:19.426Z,45.80
2017-05-28T20:59:48.256Z,46.70
2017-05-28T21:02:17.079Z,46.90
2017-05-28T21:04:45.927Z,46.50
2017-05-28T21:07:14.755Z,47.30
2017-05-28T21:09:43.599Z,47.50
2017-05-28T21:12:12.436Z,47.70
2017-05-28T21:14:41.287Z,47.80
2017-05-28T21:17:10.132Z,46.80
2017-05-28T21:19:38.969Z,47.10
2017-05-28T21:22:07.809Z,47.90
2017-05-28T21:24:36.636Z,48.10
2017-05-28T21:27:05.492Z,47.20
2017-05-28T21:29:34.320Z,48.00
2017-05-28T21:32:03.196Z,47.70
2017-05-28T21:34:32.091Z,48.00
2017-05-28T21:37:01.616Z,48.30
2017-05-28T21:39:30.504Z,47.30
2017-05-28T21:41:59.349Z,47.90
2017-05-28T21:44:28.194Z,48.10
2017-05-28T21:46:57.049Z,46.90
2017-05-28T21:49:26.183Z,47.70
2017-05-28T21:51:55.358Z,48.40
2017-05-28T21:54:24.414Z,47.70
2017-05-28T21:56:52.756Z,47.70
2017-05-28T21:59:22.016Z,47.60
2017-05-28T22:01:50.491Z,48.20
2017-05-28T22:04:19.567Z,46.70
2017-05-28T22:06:48.719Z,46.50
2017-05-28T22:09:17.525Z,46.50
2017-05-28T22:11:46.359Z,45.90
2017-05-28T22:14:15.197Z,46.20
2017-05-28T22:16:44.032Z,45.80
2017-05-28T22:19:12.879Z,45.80
2017-05-28T22:21:41.722Z,46.20
2017-05-28T22:24:09.826Z,46.20
2017-05-28T22:26:38.651Z,48.70
2017-05-28T22:29:07.488Z,47.90
2017-05-28T22:31:36.331Z,48.40
2017-05-28T22:34:05.171Z,47.10
2017-05-28T22:36:34.023Z,45.50
2017-05-28T22:39:02.876Z,45.60
2017-05-28T22:41:31.738Z,45.10
2017-05-28T22:44:00.578Z,45.30
2017-05-28T22:46:29.405Z,46.80
2017-05-28T22:48:58.246Z,46.70
2017-05-28T22:51:27.076Z,48.10
2017-05-28T22:53:55.922Z,48.00
2017-05-28T22:56:24.763Z,48.10
2017-05-28T22:58:53.588Z,47.80
2017-05-28T23:01:22.449Z,48.50
2017-05-28T23:03:51.349Z,49.30
2017-05-28T23:06:20.208Z,49.40
2017-05-28T23:08:49.051Z,49.50
2017-05-28T23:11:17.884Z,50.10
2017-05-28T23:13:46.724Z,50.20
2017-05-28T23:16:15.547Z,50.20
2017-05-28T23:18:44.383Z,49.70
2017-05-28T23:21:13.215Z,50.70
2017-05-28T23:23:42.067Z,50.70
2017-05-28T23:26:10.907Z,50.60
2017-05-28T23:28:39.749Z,50.10
2017-05-28T23:31:08.604Z,50.00
2017-05-28T23:33:37.429Z,49.30
2017-05-28T23:36:06.264Z,49.20
2017-05-28T23:38:35.095Z,49.10
2017-05-28T23:41:03.971Z,49.20
2017-05-28T23:43:32.802Z,49.30
2017-05-28T23:46:01.624Z,50.30
2017-05-28T23:48:30.477Z,50.50
2017-05-28T23:50:59.353Z,50.20
2017-05-28T23:53:28.190Z,50.20
2017-05-28T23:55:57.020Z,50.60
2017-05-28T23:58:25.871Z,50.30
